createdAt,value
2023-04-13T00:00:16.801Z,99.0
2023-04-13T00:01:17.368Z,99.0
2023-04-13T00:02:17.309Z,99.0
2023-04-13T00:03:17.727Z,99.0
2023-04-13T00:04:17.526Z,99.1
2023-04-13T00:05:17.194Z,99.1
2023-04-13T00:06:16.796Z,99.1
2023-04-13T00:07:17.333Z,99.1
2023-04-13T00:08:16.900Z,99.1
2023-04-13T00:09:17.498Z,99.1
2023-04-13T00:10:17.051Z,99.1
2023-04-13T00:11:16.597Z,99.2
2023-04-13T00:12:16.773Z,99.2
2023-04-13T00:13:17.329Z,99.2
2023-04-13T00:14:16.897Z,99.2
2023-04-13T00:15:17.484Z,99.1
2023-04-13T00:16:17.109Z,99.2
2023-04-13T00:17:16.672Z,99.2
2023-04-13T00:18:17.268Z,99.2
2023-04-13T00:19:16.816Z,99.2
2023-04-13T00:20:17.392Z,99.2
2023-04-13T00:21:17.085Z,99.4
2023-04-13T00:22:17.271Z,99.5
2023-04-13T00:23:16.822Z,99.6
2023-04-13T00:24:17.386Z,99.6
2023-04-13T00:25:16.960Z,99.6
2023-04-13T00:26:16.592Z,99.6
2023-04-13T00:27:17.150Z,99.6
2023-04-13T00:28:16.777Z,99.6
2023-04-13T00:29:17.353Z,99.6
2023-04-13T00:30:16.952Z,99.6
2023-04-13T00:31:17.659Z,99.5
2023-04-13T00:32:17.451Z,99.5
2023-04-13T00:33:17.113Z,99.5
2023-04-13T00:34:16.692Z,99.6
2023-04-13T00:35:17.284Z,99.6
2023-04-13T00:36:16.837Z,99.7
2023-04-13T00:37:17.395Z,99.7
2023-04-13T00:38:16.949Z,99.7
2023-04-13T00:39:17.510Z,99.7
2023-04-13T00:40:17.153Z,99.7
2023-04-13T00:41:16.710Z,99.7
2023-04-13T00:42:17.368Z,99.6
2023-04-13T00:43:16.920Z,99.5
2023-04-13T00:44:17.463Z,99.4
2023-04-13T00:45:17.000Z,99.4
2023-04-13T00:46:16.677Z,99.4
2023-04-13T00:47:17.248Z,99.4
2023-04-13T00:48:16.784Z,99.3
2023-04-13T00:49:17.336Z,99.0
2023-04-13T00:50:16.882Z,99.0
2023-04-13T00:51:17.455Z,99.0
2023-04-13T00:52:17.344Z,98.6
2023-04-13T00:53:16.906Z,98.4
2023-04-13T00:54:17.443Z,98.3
2023-04-13T00:55:17.012Z,98.1
2023-04-13T00:56:16.568Z,98.1
2023-04-13T00:57:17.126Z,98.1
2023-04-13T00:58:16.671Z,97.9
2023-04-13T00:59:17.196Z,97.8
2023-04-13T01:00:16.809Z,97.7
2023-04-13T01:01:17.487Z,97.3
2023-04-13T01:02:17.583Z,96.8
2023-04-13T01:03:17.574Z,96.7
2023-04-13T01:04:17.267Z,96.6
2023-04-13T01:05:16.862Z,96.6
2023-04-13T01:06:17.465Z,96.5
2023-04-13T01:07:17.037Z,96.3
2023-04-13T01:08:16.601Z,95.8
2023-04-13T01:09:17.209Z,95.5
2023-04-13T01:10:16.775Z,95.5
2023-04-13T01:11:17.333Z,95.8
2023-04-13T01:12:16.904Z,96.4
2023-04-13T01:13:17.442Z,96.5
2023-04-13T01:14:16.969Z,96.7
2023-04-13T01:15:16.508Z,96.9
2023-04-13T01:16:17.131Z,96.8
2023-04-13T01:17:16.697Z,96.7
2023-04-13T01:18:17.254Z,96.6
2023-04-13T01:19:16.799Z,96.6
2023-04-13T01:20:17.370Z,96.5
2023-04-13T01:21:16.930Z,96.8
2023-04-13T01:22:17.413Z,96.7
2023-04-13T01:23:16.965Z,96.7
2023-04-13T01:24:17.503Z,96.6
2023-04-13T01:25:17.041Z,96.2
2023-04-13T01:26:16.598Z,96.6
2023-04-13T01:27:17.181Z,96.3
2023-04-13T01:28:16.729Z,96.7
2023-04-13T01:29:17.288Z,96.7
2023-04-13T01:30:16.849Z,96.9
2023-04-13T01:31:17.590Z,97.1
2023-04-13T01:32:17.056Z,96.7
2023-04-13T01:33:16.811Z,96.6
2023-04-13T01:34:17.384Z,96.6
2023-04-13T01:35:16.953Z,96.2
2023-04-13T01:36:17.529Z,96.3
2023-04-13T01:37:17.088Z,96.2
2023-04-13T01:38:16.629Z,96.3
2023-04-13T01:39:17.167Z,96.3
2023-04-13T01:40:16.704Z,96.3
2023-04-13T01:41:17.248Z,96.4
2023-04-13T01:42:16.597Z,96.5
2023-04-13T01:43:17.118Z,96.6
2023-04-13T01:44:16.664Z,96.7
2023-04-13T01:45:17.222Z,96.4
2023-04-13T01:46:16.887Z,96.4
2023-04-13T01:47:17.494Z,96.3
2023-04-13T01:48:17.042Z,96.3
2023-04-13T01:49:16.598Z,96.3
2023-04-13T01:50:17.145Z,96.3
2023-04-13T01:51:16.772Z,96.4
2023-04-13T01:52:17.470Z,96.5
2023-04-13T01:53:17.050Z,96.4
2023-04-13T01:54:16.567Z,96.4
2023-04-13T01:55:17.108Z,96.3
2023-04-13T01:56:16.627Z,96.2
2023-04-13T01:57:17.172Z,96.3
2023-04-13T01:58:16.702Z,96.3
2023-04-13T01:59:17.252Z,96.3
2023-04-13T02:00:16.827Z,96.2
2023-04-13T02:01:17.519Z,96.3
2023-04-13T02:02:17.093Z,96.2
2023-04-13T02:03:16.986Z,96.1
2023-04-13T02:04:16.867Z,96.1
2023-04-13T02:05:17.486Z,96.1
2023-04-13T02:06:17.057Z,96.1
2023-04-13T02:07:16.696Z,96.2
2023-04-13T02:08:17.230Z,96.0
2023-04-13T02:09:16.785Z,95.8
2023-04-13T02:10:17.374Z,95.8
2023-04-13T02:11:16.902Z,95.9
2023-04-13T02:12:17.401Z,96.0
2023-04-13T02:13:16.957Z,96.2
2023-04-13T02:14:17.506Z,96.1
2023-04-13T02:15:17.047Z,96.1
2023-04-13T02:16:16.695Z,96.2
2023-04-13T02:17:17.270Z,96.1
2023-04-13T02:18:16.810Z,96.0
2023-04-13T02:19:17.388Z,95.9
2023-04-13T02:20:16.969Z,95.8
2023-04-13T02:21:17.493Z,96.0
2023-04-13T02:22:17.172Z,96.3
2023-04-13T02:23:16.741Z,96.3
2023-04-13T02:24:17.335Z,96.5
2023-04-13T02:25:16.860Z,96.5
2023-04-13T02:26:17.419Z,96.4
2023-04-13T02:27:16.962Z,96.4
2023-04-13T02:28:17.682Z,96.1
2023-04-13T02:29:17.524Z,95.7
2023-04-13T02:30:17.118Z,95.8
2023-04-13T02:31:17.254Z,95.8
2023-04-13T02:32:17.265Z,95.9
2023-04-13T02:33:16.797Z,96.1
2023-04-13T02:34:17.349Z,96.2
2023-04-13T02:35:16.981Z,96.1
2023-04-13T02:36:16.575Z,96.1
2023-04-13T02:37:17.115Z,96.1
2023-04-13T02:38:16.673Z,96.0
2023-04-13T02:39:17.245Z,96.1
2023-04-13T02:40:16.852Z,96.2
2023-04-13T02:41:17.403Z,96.3
2023-04-13T02:42:16.779Z,96.4
2023-04-13T02:43:17.334Z,96.4
2023-04-13T02:44:16.917Z,96.5
2023-04-13T02:45:17.462Z,96.5
2023-04-13T02:46:17.272Z,96.5
2023-04-13T02:47:16.954Z,96.6
2023-04-13T02:48:16.545Z,96.6
2023-04-13T02:49:17.099Z,96.7
2023-04-13T02:50:16.662Z,96.7
2023-04-13T02:51:17.220Z,96.7
2023-04-13T02:52:16.599Z,96.6
2023-04-13T02:53:17.212Z,96.6
2023-04-13T02:54:16.786Z,96.6
2023-04-13T02:55:17.354Z,96.7
2023-04-13T02:56:16.945Z,96.7
2023-04-13T02:57:17.556Z,96.8
2023-04-13T02:58:17.117Z,96.7
2023-04-13T02:59:16.706Z,96.7
2023-04-13T03:00:17.304Z,96.6
2023-04-13T03:01:16.937Z,96.6
2023-04-13T03:02:17.133Z,96.7
2023-04-13T03:03:16.947Z,96.6
2023-04-13T03:04:16.667Z,96.6
2023-04-13T03:05:17.239Z,96.5
2023-04-13T03:06:16.783Z,96.5
2023-04-13T03:07:17.544Z,96.4
2023-04-13T03:08:17.119Z,96.4
2023-04-13T03:09:16.679Z,96.5
2023-04-13T03:10:17.234Z,96.4
2023-04-13T03:11:16.786Z,96.4
2023-04-13T03:12:17.341Z,96.4
2023-04-13T03:13:16.910Z,96.4
2023-04-13T03:14:17.465Z,96.5
2023-04-13T03:15:17.032Z,96.3
2023-04-13T03:16:16.658Z,96.4
2023-04-13T03:17:19.982Z,96.3
2023-04-13T03:18:16.592Z,96.3
2023-04-13T03:19:17.132Z,96.4
2023-04-13T03:20:16.718Z,96.4
2023-04-13T03:21:17.309Z,96.4
2023-04-13T03:22:17.512Z,96.4
2023-04-13T03:23:17.065Z,96.4
2023-04-13T03:24:16.614Z,96.4
2023-04-13T03:25:17.197Z,96.4
2023-04-13T03:26:16.749Z,96.5
2023-04-13T03:27:17.324Z,96.4
2023-04-13T03:28:16.882Z,96.4
2023-04-13T03:29:17.489Z,96.4
2023-04-13T03:30:17.045Z,96.4
2023-04-13T03:31:16.629Z,96.4
2023-04-13T03:32:17.207Z,96.6
2023-04-13T03:33:16.780Z,96.8
2023-04-13T03:34:17.332Z,96.8
2023-04-13T03:35:16.908Z,96.8
2023-04-13T03:36:17.437Z,96.9
2023-04-13T03:37:16.964Z,97.1
2023-04-13T03:38:17.524Z,97.2
2023-04-13T03:39:17.139Z,97.2
2023-04-13T03:40:16.712Z,97.3
2023-04-13T03:41:17.265Z,97.4
2023-04-13T03:42:16.632Z,97.2
2023-04-13T03:43:17.236Z,97.0
2023-04-13T03:44:16.826Z,97.0
2023-04-13T03:45:17.396Z,97.0
2023-04-13T03:46:17.022Z,96.9
2023-04-13T03:47:16.565Z,97.0
2023-04-13T03:48:17.087Z,96.9
2023-04-13T03:49:16.635Z,97.0
2023-04-13T03:50:17.250Z,96.9
2023-04-13T03:51:16.822Z,96.9
2023-04-13T03:52:16.552Z,96.9
2023-04-13T03:53:17.118Z,96.9
2023-04-13T03:54:16.668Z,96.8
2023-04-13T03:55:17.335Z,96.8
2023-04-13T03:56:16.988Z,96.8
2023-04-13T03:57:16.538Z,96.7
2023-04-13T03:58:17.104Z,96.8
2023-04-13T03:59:16.639Z,96.8
2023-04-13T04:00:17.180Z,96.9
2023-04-13T04:01:16.799Z,96.9
2023-04-13T04:02:17.332Z,97.0
2023-04-13T04:03:17.176Z,96.9
2023-04-13T04:04:17.115Z,97.0
2023-04-13T04:05:16.922Z,97.1
2023-04-13T04:06:16.552Z,97.0
2023-04-13T04:07:17.158Z,96.9
2023-04-13T04:08:16.720Z,96.8
2023-04-13T04:09:17.280Z,96.9
2023-04-13T04:10:16.838Z,96.7
2023-04-13T04:11:17.401Z,96.8
2023-04-13T04:12:17.230Z,96.8
2023-04-13T04:13:16.868Z,96.9
2023-04-13T04:14:17.429Z,96.9
2023-04-13T04:15:16.986Z,96.8
2023-04-13T04:16:16.728Z,96.8
2023-04-13T04:17:17.327Z,96.8
2023-04-13T04:18:16.884Z,96.7
2023-04-13T04:19:17.432Z,96.7
2023-04-13T04:20:17.013Z,96.7
2023-04-13T04:21:16.573Z,96.7
2023-04-13T04:22:17.178Z,96.6
2023-04-13T04:23:19.937Z,96.6
2023-04-13T04:24:16.569Z,96.5
2023-04-13T04:25:17.102Z,96.5
2023-04-13T04:26:16.644Z,96.5
2023-04-13T04:27:17.182Z,96.5
2023-04-13T04:28:16.734Z,96.5
2023-04-13T04:29:17.269Z,96.5
2023-04-13T04:30:16.844Z,96.4
2023-04-13T04:31:17.413Z,96.5
2023-04-13T04:32:17.065Z,96.5
2023-04-13T04:33:16.655Z,96.5
2023-04-13T04:34:17.241Z,96.5
2023-04-13T04:35:16.801Z,96.4
2023-04-13T04:36:17.353Z,96.4
2023-04-13T04:37:21.117Z,96.4
2023-04-13T04:38:16.692Z,96.4
2023-04-13T04:39:17.268Z,96.4
2023-04-13T04:40:16.834Z,96.4
2023-04-13T04:41:17.409Z,96.4
2023-04-13T04:42:17.289Z,96.4
2023-04-13T04:43:16.800Z,96.4
2023-04-13T04:44:17.343Z,96.6
2023-04-13T04:45:16.959Z,96.8
2023-04-13T04:46:17.583Z,96.8
2023-04-13T04:47:17.224Z,96.8
2023-04-13T04:48:16.773Z,96.8
2023-04-13T04:49:17.377Z,96.8
2023-04-13T04:50:16.953Z,96.8
2023-04-13T04:51:17.539Z,96.8
2023-04-13T04:52:17.037Z,96.8
2023-04-13T04:53:16.578Z,96.7
2023-04-13T04:54:17.124Z,96.7
2023-04-13T04:55:16.677Z,96.7
2023-04-13T04:56:17.250Z,96.7
2023-04-13T04:57:16.779Z,96.8
2023-04-13T04:58:17.344Z,96.9
2023-04-13T04:59:16.914Z,96.9
2023-04-13T05:00:17.487Z,96.9
2023-04-13T05:01:17.168Z,96.9
2023-04-13T05:02:17.348Z,96.9
2023-04-13T05:03:17.049Z,96.9
2023-04-13T05:04:16.666Z,96.9
2023-04-13T05:05:17.310Z,96.9
2023-04-13T05:06:16.892Z,96.9
2023-04-13T05:07:17.479Z,96.9
2023-04-13T05:08:17.031Z,96.8
2023-04-13T05:09:16.604Z,96.9
2023-04-13T05:10:17.237Z,96.8
2023-04-13T05:11:16.810Z,96.2
2023-04-13T05:12:17.485Z,96.1
2023-04-13T05:13:17.033Z,96.1
2023-04-13T05:14:16.585Z,95.8
2023-04-13T05:15:17.148Z,95.9
2023-04-13T05:16:16.790Z,95.8
2023-04-13T05:17:17.403Z,95.6
2023-04-13T05:18:16.948Z,95.5
2023-04-13T05:19:17.503Z,95.6
2023-04-13T05:20:17.093Z,95.5
2023-04-13T05:21:16.618Z,95.4
2023-04-13T05:22:16.684Z,95.2
2023-04-13T05:23:17.250Z,94.7
2023-04-13T05:24:16.811Z,94.4
2023-04-13T05:25:17.392Z,94.3
2023-04-13T05:26:16.951Z,94.1
2023-04-13T05:27:17.573Z,94.0
2023-04-13T05:28:17.125Z,93.7
2023-04-13T05:29:16.678Z,93.7
2023-04-13T05:30:17.264Z,93.2
2023-04-13T05:31:16.923Z,93.2
2023-04-13T05:32:16.556Z,93.1
2023-04-13T05:33:17.137Z,93.0
2023-04-13T05:34:16.744Z,92.6
2023-04-13T05:35:17.385Z,92.4
2023-04-13T05:36:16.939Z,92.1
2023-04-13T05:37:17.531Z,92.2
2023-04-13T05:38:17.103Z,91.8
2023-04-13T05:39:16.644Z,91.5
2023-04-13T05:40:17.239Z,91.2
2023-04-13T05:41:16.798Z,91.1
2023-04-13T05:42:16.704Z,91.2
2023-04-13T05:43:17.298Z,91.3
2023-04-13T05:44:16.852Z,91.2
2023-04-13T05:45:17.470Z,91.0
2023-04-13T05:46:17.153Z,90.7
2023-04-13T05:47:16.742Z,90.5
2023-04-13T05:48:17.346Z,90.5
2023-04-13T05:49:16.927Z,90.6
2023-04-13T05:50:17.475Z,90.5
2023-04-13T05:51:17.035Z,90.4
2023-04-13T05:52:16.539Z,90.5
2023-04-13T05:53:17.112Z,90.2
2023-04-13T05:54:16.664Z,90.4
2023-04-13T05:55:17.253Z,90.6
2023-04-13T05:56:16.802Z,90.1
2023-04-13T05:57:17.401Z,90.0
2023-04-13T05:58:16.949Z,90.2
2023-04-13T05:59:17.504Z,89.6
2023-04-13T06:00:17.073Z,89.9
2023-04-13T06:01:16.636Z,89.0
2023-04-13T06:02:17.631Z,89.2
2023-04-13T06:03:17.774Z,88.8
2023-04-13T06:04:18.035Z,89.1
2023-04-13T06:05:16.847Z,88.7
2023-04-13T06:06:17.466Z,88.2
2023-04-13T06:07:17.054Z,89.2
2023-04-13T06:08:16.610Z,89.3
2023-04-13T06:09:17.177Z,88.9
2023-04-13T06:10:16.842Z,88.8
2023-04-13T06:11:17.600Z,88.6
2023-04-13T06:12:16.987Z,88.5
2023-04-13T06:13:16.539Z,88.6
2023-04-13T06:14:17.091Z,88.6
2023-04-13T06:15:16.651Z,88.2
2023-04-13T06:16:17.229Z,88.0
2023-04-13T06:17:16.804Z,88.3
2023-04-13T06:18:17.525Z,87.2
2023-04-13T06:19:17.103Z,87.3
2023-04-13T06:20:16.642Z,87.4
2023-04-13T06:21:17.173Z,87.1
2023-04-13T06:22:17.084Z,86.9
2023-04-13T06:23:16.637Z,87.0
2023-04-13T06:24:17.192Z,86.3
2023-04-13T06:25:16.934Z,86.6
2023-04-13T06:26:17.559Z,86.6
2023-04-13T06:27:17.116Z,86.2
2023-04-13T06:28:16.704Z,85.9
2023-04-13T06:29:17.298Z,85.8
2023-04-13T06:30:16.932Z,85.3
2023-04-13T06:31:16.794Z,85.2
2023-04-13T06:32:16.846Z,85.2
2023-04-13T06:33:17.425Z,84.6
2023-04-13T06:34:16.994Z,84.5
2023-04-13T06:35:16.558Z,84.1
2023-04-13T06:36:17.122Z,83.5
2023-04-13T06:37:16.684Z,82.9
2023-04-13T06:38:17.249Z,82.6
2023-04-13T06:39:16.799Z,82.1
2023-04-13T06:40:17.362Z,81.7
2023-04-13T06:41:16.905Z,81.8
2023-04-13T06:42:17.483Z,81.2
2023-04-13T06:43:29.883Z,81.4
2023-04-13T06:44:16.558Z,81.0
2023-04-13T06:45:17.101Z,80.8
2023-04-13T06:46:20.096Z,81.2
2023-04-13T06:47:16.729Z,80.8
2023-04-13T06:48:17.294Z,80.9
2023-04-13T06:49:16.943Z,80.2
2023-04-13T06:50:17.495Z,80.4
2023-04-13T06:51:17.045Z,80.6
2023-04-13T06:52:16.726Z,81.1
2023-04-13T06:53:17.302Z,81.0
2023-04-13T06:54:16.846Z,80.0
2023-04-13T06:55:17.431Z,80.3
2023-04-13T06:56:16.967Z,80.3
2023-04-13T06:57:17.562Z,80.2
2023-04-13T06:58:17.140Z,79.6
2023-04-13T06:59:16.674Z,79.1
2023-04-13T07:00:30.371Z,80.2
2023-04-13T07:01:17.272Z,79.8
2023-04-13T07:02:17.626Z,79.8
2023-04-13T07:03:17.552Z,80.8
2023-04-13T07:04:17.487Z,81.1
2023-04-13T07:05:17.131Z,80.3
2023-04-13T07:06:16.713Z,80.1
2023-04-13T07:07:17.268Z,79.7
2023-04-13T07:08:16.834Z,79.9
2023-04-13T07:09:17.372Z,79.9
2023-04-13T07:10:16.934Z,79.9
2023-04-13T07:11:17.480Z,79.5
2023-04-13T07:12:17.297Z,78.9
2023-04-13T07:13:16.854Z,78.8
2023-04-13T07:14:17.421Z,79.2
2023-04-13T07:15:17.013Z,79.3
2023-04-13T07:16:16.746Z,79.2
2023-04-13T07:17:17.496Z,78.8
2023-04-13T07:18:17.102Z,78.9
2023-04-13T07:19:16.637Z,78.9
2023-04-13T07:20:17.213Z,78.5
2023-04-13T07:21:16.749Z,78.5
2023-04-13T07:22:16.577Z,78.6
2023-04-13T07:23:17.112Z,78.2
2023-04-13T07:24:16.663Z,78.1
2023-04-13T07:25:17.243Z,77.9
2023-04-13T07:26:16.804Z,78.1
2023-04-13T07:27:17.404Z,77.8
2023-04-13T07:28:17.024Z,77.9
2023-04-13T07:29:16.652Z,77.9
2023-04-13T07:30:17.276Z,78.2
2023-04-13T07:31:17.083Z,77.6
2023-04-13T07:32:18.044Z,78.0
2023-04-13T07:33:17.189Z,77.7
2023-04-13T07:34:16.973Z,77.9
2023-04-13T07:35:16.562Z,78.0
2023-04-13T07:36:17.127Z,77.5
2023-04-13T07:37:16.681Z,77.0
2023-04-13T07:38:17.237Z,77.1
2023-04-13T07:39:16.798Z,76.8
2023-04-13T07:40:17.337Z,76.9
2023-04-13T07:41:16.891Z,77.1
2023-04-13T07:42:17.260Z,77.1
2023-04-13T07:43:19.794Z,77.7
2023-04-13T07:44:17.118Z,77.5
2023-04-13T07:45:16.678Z,77.1
2023-04-13T07:46:17.308Z,77.2
2023-04-13T07:47:17.003Z,77.3
2023-04-13T07:48:16.549Z,77.5
2023-04-13T07:49:17.126Z,77.9
2023-04-13T07:50:16.706Z,77.5
2023-04-13T07:51:17.275Z,77.2
2023-04-13T07:52:17.182Z,77.3
2023-04-13T07:53:16.761Z,77.2
2023-04-13T07:54:17.306Z,77.4
2023-04-13T07:55:16.903Z,77.6
2023-04-13T07:56:17.504Z,77.1
2023-04-13T07:57:17.063Z,76.9
2023-04-13T07:58:16.658Z,77.0
2023-04-13T07:59:17.225Z,76.9
2023-04-13T08:00:16.808Z,77.2
2023-04-13T08:01:17.381Z,77.3
2023-04-13T08:02:17.659Z,77.7
2023-04-13T08:03:17.801Z,77.4
2023-04-13T08:04:17.949Z,77.2
2023-04-13T08:05:17.206Z,77.5
2023-04-13T08:06:16.888Z,78.4
2023-04-13T08:07:17.437Z,78.2
2023-04-13T08:08:17.056Z,78.7
2023-04-13T08:09:16.618Z,78.8
2023-04-13T08:10:17.186Z,79.2
2023-04-13T08:11:16.808Z,79.2
2023-04-13T08:12:17.413Z,78.9
2023-04-13T08:13:16.965Z,78.6
2023-04-13T08:14:17.577Z,78.5
2023-04-13T08:15:17.148Z,78.9
2023-04-13T08:16:16.730Z,78.5
2023-04-13T08:17:17.334Z,78.6
2023-04-13T08:18:16.884Z,78.3
2023-04-13T08:19:17.432Z,78.1
2023-04-13T08:20:17.053Z,78.3
2023-04-13T08:21:16.641Z,78.7
2023-04-13T08:22:17.116Z,79.5
2023-04-13T08:23:16.658Z,80.9
2023-04-13T08:24:17.211Z,81.2
2023-04-13T08:25:16.766Z,79.9
2023-04-13T08:26:17.330Z,79.9
2023-04-13T08:27:16.900Z,79.9
2023-04-13T08:28:17.496Z,79.1
2023-04-13T08:29:17.079Z,79.5
2023-04-13T08:30:16.680Z,80.3
2023-04-13T08:31:17.235Z,79.6
2023-04-13T08:32:17.039Z,79.7
2023-04-13T08:33:16.647Z,79.7
2023-04-13T08:34:17.190Z,80.3
2023-04-13T08:35:16.798Z,80.3
2023-04-13T08:36:17.452Z,80.4
2023-04-13T08:37:17.097Z,79.8
2023-04-13T08:38:16.672Z,80.1
2023-04-13T08:39:17.219Z,79.8
2023-04-13T08:40:16.806Z,80.3
2023-04-13T08:41:17.501Z,82.5
2023-04-13T08:42:16.654Z,82.3
2023-04-13T08:43:17.196Z,82.9
2023-04-13T08:44:16.749Z,83.0
2023-04-13T08:45:17.286Z,84.1
2023-04-13T08:46:16.952Z,83.0
2023-04-13T08:47:17.540Z,82.8
2023-04-13T08:48:17.152Z,82.9
2023-04-13T08:49:16.763Z,82.8
2023-04-13T08:50:17.336Z,82.1
2023-04-13T08:51:16.886Z,80.8
2023-04-13T08:52:17.246Z,81.7
2023-04-13T08:53:16.841Z,80.9
2023-04-13T08:54:17.410Z,80.1
2023-04-13T08:55:17.247Z,79.0
2023-04-13T08:56:16.814Z,78.2
2023-04-13T08:57:17.371Z,77.7
2023-04-13T08:58:16.929Z,77.5
2023-04-13T08:59:17.473Z,76.6
2023-04-13T09:00:17.050Z,76.4
2023-04-13T09:01:16.694Z,75.5
2023-04-13T09:02:16.743Z,76.0
2023-04-13T09:03:17.679Z,75.4
2023-04-13T09:04:18.837Z,74.8
2023-04-13T09:05:17.333Z,74.2
2023-04-13T09:06:17.005Z,73.8
2023-04-13T09:07:16.618Z,72.1
2023-04-13T09:08:17.208Z,72.1
2023-04-13T09:09:16.757Z,72.4
2023-04-13T09:10:17.350Z,73.2
2023-04-13T09:11:16.893Z,73.1
2023-04-13T09:12:17.351Z,73.2
2023-04-13T09:13:16.934Z,72.2
2023-04-13T09:14:17.529Z,72.0
2023-04-13T09:15:17.100Z,72.7
2023-04-13T09:16:16.742Z,71.5
2023-04-13T09:17:17.624Z,72.5
2023-04-13T09:18:17.284Z,72.8
2023-04-13T09:19:16.874Z,73.7
2023-04-13T09:20:17.470Z,74.1
2023-04-13T09:21:17.185Z,74.0
2023-04-13T09:22:17.030Z,74.0
2023-04-13T09:23:16.628Z,73.9
2023-04-13T09:24:17.181Z,73.8
2023-04-13T09:25:16.727Z,73.9
2023-04-13T09:26:17.319Z,73.5
2023-04-13T09:27:16.863Z,73.8
2023-04-13T09:28:17.476Z,73.4
2023-04-13T09:29:17.009Z,73.8
2023-04-13T09:30:16.547Z,73.3
2023-04-13T09:31:17.281Z,73.7
2023-04-13T09:32:17.166Z,73.1
2023-04-13T09:33:16.757Z,73.3
2023-04-13T09:34:17.418Z,73.3
2023-04-13T09:35:17.030Z,73.3
2023-04-13T09:36:16.630Z,73.3
2023-04-13T09:37:17.201Z,73.3
2023-04-13T09:38:16.753Z,72.8
2023-04-13T09:39:17.332Z,73.1
2023-04-13T09:40:16.896Z,73.3
2023-04-13T09:41:17.447Z,73.4
2023-04-13T09:42:17.500Z,72.5
2023-04-13T09:43:17.048Z,71.9
2023-04-13T09:44:16.629Z,71.5
2023-04-13T09:45:17.186Z,71.7
2023-04-13T09:46:16.796Z,72.4
2023-04-13T09:47:17.375Z,72.5
2023-04-13T09:48:17.014Z,72.1
2023-04-13T09:49:16.557Z,72.1
2023-04-13T09:50:17.135Z,71.9
2023-04-13T09:51:16.696Z,72.2
2023-04-13T09:52:17.414Z,73.0
2023-04-13T09:53:17.000Z,72.8
2023-04-13T09:54:16.595Z,73.9
2023-04-13T09:55:17.142Z,73.9
2023-04-13T09:56:16.702Z,73.4
2023-04-13T09:57:17.247Z,73.7
2023-04-13T09:58:16.828Z,73.5
2023-04-13T09:59:17.410Z,73.5
2023-04-13T10:00:19.766Z,73.4
2023-04-13T10:01:17.637Z,73.5
2023-04-13T10:02:17.411Z,73.7
2023-04-13T10:03:17.256Z,72.5
2023-04-13T10:04:16.854Z,73.1
2023-04-13T10:05:17.506Z,72.7
2023-04-13T10:06:17.117Z,72.1
2023-04-13T10:07:16.652Z,72.8
2023-04-13T10:08:34.945Z,71.3
2023-04-13T10:09:17.128Z,71.9
2023-04-13T10:10:16.741Z,70.5
2023-04-13T10:11:17.310Z,70.4
2023-04-13T10:12:17.315Z,70.6
2023-04-13T10:13:25.740Z,70.7
2023-04-13T10:14:17.397Z,71.3
2023-04-13T10:15:17.009Z,71.6
2023-04-13T10:16:16.621Z,71.8
2023-04-13T10:17:17.314Z,70.9
2023-04-13T10:18:17.373Z,70.9
2023-04-13T10:19:17.400Z,71.3
2023-04-13T10:20:17.001Z,71.2
2023-04-13T10:21:16.568Z,70.9
2023-04-13T10:22:16.534Z,71.3
2023-04-13T10:23:17.087Z,71.2
2023-04-13T10:24:16.659Z,71.8
2023-04-13T10:25:33.384Z,71.9
2023-04-13T10:26:16.689Z,71.0
2023-04-13T10:27:17.320Z,71.5
2023-04-13T10:28:16.882Z,72.0
2023-04-13T10:29:19.600Z,71.8
2023-04-13T10:30:16.948Z,71.2
2023-04-13T10:31:17.541Z,71.5
2023-04-13T10:32:17.316Z,71.9
2023-04-13T10:33:16.843Z,72.2
2023-04-13T10:34:17.387Z,72.5
2023-04-13T10:35:16.937Z,72.9
2023-04-13T10:36:17.528Z,73.2
2023-04-13T10:37:17.087Z,73.2
2023-04-13T10:38:16.629Z,72.9
2023-04-13T10:39:17.204Z,73.6
2023-04-13T10:40:16.809Z,73.4
2023-04-13T10:41:17.338Z,73.4
2023-04-13T10:42:18.412Z,73.2
2023-04-13T10:43:16.989Z,73.2
2023-04-13T10:44:16.578Z,72.9
2023-04-13T10:45:17.130Z,73.0
2023-04-13T10:46:16.817Z,72.8
2023-04-13T10:47:17.407Z,73.1
2023-04-13T10:48:17.062Z,72.9
2023-04-13T10:49:16.651Z,72.7
2023-04-13T10:50:17.211Z,71.6
2023-04-13T10:51:16.785Z,72.3
2023-04-13T10:52:16.681Z,70.8
2023-04-13T10:53:17.249Z,69.9
2023-04-13T10:54:16.862Z,69.8
2023-04-13T10:55:17.446Z,69.6
2023-04-13T10:56:17.058Z,69.8
2023-04-13T10:57:16.631Z,69.4
2023-04-13T10:58:17.221Z,69.3
2023-04-13T10:59:16.798Z,69.6
2023-04-13T11:00:17.387Z,69.2
2023-04-13T11:01:16.951Z,69.0
2023-04-13T11:02:17.474Z,69.5
2023-04-13T11:03:18.323Z,68.9
2023-04-13T11:04:19.153Z,69.4
2023-04-13T11:05:16.828Z,69.2
2023-04-13T11:06:17.416Z,68.6
2023-04-13T11:07:16.977Z,68.6
2023-04-13T11:08:16.544Z,69.0
2023-04-13T11:09:17.542Z,69.5
2023-04-13T11:10:17.099Z,69.7
2023-04-13T11:11:16.654Z,70.1
2023-04-13T11:12:17.479Z,69.6
2023-04-13T11:13:17.065Z,69.3
2023-04-13T11:14:19.411Z,68.9
2023-04-13T11:15:16.943Z,69.3
2023-04-13T11:16:17.553Z,69.4
2023-04-13T11:17:17.491Z,69.2
2023-04-13T11:18:17.219Z,67.8
2023-04-13T11:19:16.783Z,68.8
2023-04-13T11:20:17.417Z,69.4
2023-04-13T11:21:16.995Z,69.5
2023-04-13T11:22:16.623Z,69.4
2023-04-13T11:23:17.177Z,69.7
2023-04-13T11:24:16.720Z,69.4
2023-04-13T11:25:17.326Z,69.4
2023-04-13T11:26:16.921Z,69.3
2023-04-13T11:27:17.533Z,69.8
2023-04-13T11:28:17.109Z,70.5
2023-04-13T11:29:16.757Z,73.3
2023-04-13T11:30:17.463Z,74.9
2023-04-13T11:31:17.087Z,77.1
2023-04-13T11:32:17.233Z,77.9
2023-04-13T11:33:16.845Z,78.2
2023-04-13T11:34:17.406Z,80.0
2023-04-13T11:35:16.989Z,81.5
2023-04-13T11:36:16.573Z,82.1
2023-04-13T11:37:17.127Z,82.4
2023-04-13T11:38:16.657Z,83.2
2023-04-13T11:39:17.211Z,84.4
2023-04-13T11:40:16.818Z,85.4
2023-04-13T11:41:17.888Z,85.1
2023-04-13T11:42:17.072Z,85.0
2023-04-13T11:43:16.628Z,86.5
2023-04-13T11:44:17.189Z,86.2
2023-04-13T11:45:18.552Z,85.0
2023-04-13T11:46:17.155Z,84.1
2023-04-13T11:47:16.728Z,84.8
2023-04-13T11:48:17.305Z,85.2
2023-04-13T11:49:16.863Z,86.5
2023-04-13T11:50:17.580Z,85.6
2023-04-13T11:51:17.149Z,86.0
2023-04-13T11:52:16.699Z,83.6
2023-04-13T11:53:17.293Z,83.7
2023-04-13T11:54:16.843Z,84.8
2023-04-13T11:55:24.377Z,82.7
2023-04-13T11:56:17.036Z,80.9
2023-04-13T11:57:16.599Z,81.1
2023-04-13T11:58:17.163Z,82.1
2023-04-13T11:59:16.732Z,82.7
2023-04-13T12:00:17.284Z,82.2
2023-04-13T12:01:27.574Z,82.5
2023-04-13T12:02:23.251Z,81.7
2023-04-13T12:03:31.942Z,82.0
2023-04-13T12:04:17.870Z,80.4
2023-04-13T12:05:18.005Z,81.7
2023-04-13T12:06:17.613Z,80.5
2023-04-13T12:07:18.067Z,78.7
2023-04-13T12:08:18.623Z,79.8
2023-04-13T12:09:20.743Z,78.8
2023-04-13T12:10:25.301Z,78.4
2023-04-13T12:12:50.996Z,78.0
2023-04-13T12:13:33.476Z,77.5
2023-04-13T12:16:21.601Z,78.3
2023-04-13T12:17:37.943Z,77.4
2023-04-13T12:18:23.728Z,78.6
2023-04-13T12:19:18.882Z,77.5
2023-04-13T12:20:17.512Z,76.5
2023-04-13T12:21:17.560Z,76.8
2023-04-13T12:22:17.893Z,76.1
2023-04-13T12:23:24.387Z,75.8
2023-04-13T12:24:19.161Z,76.7
2023-04-13T12:25:18.104Z,77.1
2023-04-13T12:27:09.876Z,76.7
2023-04-13T12:27:19.576Z,77.1
2023-04-13T12:28:17.133Z,77.5
2023-04-13T12:29:16.668Z,76.9
2023-04-13T12:30:17.246Z,77.2
2023-04-13T12:31:16.940Z,76.9
2023-04-13T12:32:17.787Z,77.3
2023-04-13T12:33:17.350Z,77.3
2023-04-13T12:34:16.897Z,77.6
2023-04-13T12:35:17.460Z,77.0
2023-04-13T12:36:17.043Z,77.2
2023-04-13T12:37:16.587Z,77.1
2023-04-13T12:38:17.160Z,76.9
2023-04-13T12:39:16.708Z,77.5
2023-04-13T12:40:17.263Z,77.2
2023-04-13T12:41:16.822Z,76.5
2023-04-13T12:42:17.164Z,76.9
2023-04-13T12:43:16.768Z,78.1
2023-04-13T12:44:17.326Z,79.4
2023-04-13T12:45:17.037Z,80.0
2023-04-13T12:46:17.073Z,79.2
2023-04-13T12:47:17.095Z,79.3
2023-04-13T12:48:16.855Z,79.0
2023-04-13T12:49:17.443Z,78.9
2023-04-13T12:50:17.019Z,78.3
2023-04-13T12:51:16.602Z,77.9
2023-04-13T12:52:17.169Z,77.5
2023-04-13T12:53:16.803Z,77.0
2023-04-13T12:54:17.379Z,77.1
2023-04-13T12:55:16.946Z,76.4
2023-04-13T12:56:17.523Z,76.4
2023-04-13T12:57:17.288Z,76.1
2023-04-13T12:58:16.914Z,75.9
2023-04-13T12:59:17.465Z,76.0
2023-04-13T13:00:17.021Z,76.3
2023-04-13T13:01:16.646Z,76.1
2023-04-13T13:02:17.622Z,75.7
2023-04-13T13:03:17.387Z,74.8
2023-04-13T13:04:17.229Z,74.4
2023-04-13T13:05:16.927Z,74.4
2023-04-13T13:06:17.467Z,74.5
2023-04-13T13:07:17.135Z,74.2
2023-04-13T13:08:16.872Z,73.0
2023-04-13T13:09:17.448Z,74.1
2023-04-13T13:10:30.142Z,74.3
2023-04-13T13:11:16.827Z,74.3
2023-04-13T13:12:17.532Z,74.5
2023-04-13T13:13:17.117Z,74.1
2023-04-13T13:14:16.730Z,74.4
2023-04-13T13:15:17.276Z,74.2
2023-04-13T13:16:16.890Z,73.7
2023-04-13T13:17:17.606Z,74.2
2023-04-13T13:18:17.179Z,74.7
2023-04-13T13:19:16.715Z,74.9
2023-04-13T13:20:17.268Z,74.5
2023-04-13T13:21:16.852Z,74.7